Time;durP1;ratioP1;P1;durP2;ratioP2;P2;SDS_P1;SDS_P2;PMS_P1;PMS_P2;Temp;Humidity;BMP_temperature;BMP_pressure;BME280_temperature;BME280_humidity;BME280_pressure;Samples;Min_cycle;Max_cycle;Signal;HPM_P1;HPM_P2
2023/10/12 00:07:38;;;;;;;31.17;19.30;;;16.90;99.90;;;;;;20267151;29;20086;-82
2023/10/12 00:17:38;;;;;;;37.72;20.52;;;17.00;99.90;;;;;;20271998;29;20037;-82
2023/10/12 00:27:41;;;;;;;37.70;19.07;;;17.10;99.90;;;;;;20269511;29;20532;-81
2023/10/12 00:37:41;;;;;;;29.88;17.50;;;17.10;99.90;;;;;;20265245;29;20047;-81
2023/10/12 00:47:45;;;;;;;33.35;17.00;;;17.10;99.90;;;;;;20269297;29;20734;-82
2023/10/12 00:57:46;;;;;;;30.77;16.75;;;17.10;99.90;;;;;;20266010;29;20077;-81
2023/10/12 01:07:48;;;;;;;19.95;9.18;;;16.80;99.90;;;;;;20264988;29;20044;-81
2023/10/12 01:17:51;;;;;;;18.77;7.80;;;16.70;99.90;;;;;;20273453;29;20545;-80
2023/10/12 01:27:53;;;;;;;16.33;6.10;;;16.70;99.90;;;;;;20260021;29;20630;-79
2023/10/12 01:38:00;;;;;;;10.75;4.25;;;16.50;99.90;;;;;;20262140;29;20048;-80
2023/10/12 01:48:12;;;;;;;9.83;4.50;;;16.20;99.90;;;;;;20266194;29;20052;-80
2023/10/12 01:58:15;;;;;;;3.42;1.60;;;16.10;99.90;;;;;;20262353;29;20048;-80
2023/10/12 02:08:17;;;;;;;2.20;0.80;;;16.00;99.90;;;;;;20258532;29;20603;-80
2023/10/12 02:18:19;;;;;;;2.88;0.50;;;15.80;99.90;;;;;;20257146;29;20523;-81
2023/10/12 02:28:22;;;;;;;2.50;0.63;;;15.60;99.90;;;;;;20263934;29;20048;-80
2023/10/12 02:38:27;;;;;;;4.57;0.82;;;15.40;99.90;;;;;;20260730;29;20124;-79
2023/10/12 02:48:29;;;;;;;1.77;0.52;;;15.30;99.90;;;;;;20271346;29;20056;-79
2023/10/12 02:58:32;;;;;;;3.05;0.60;;;15.30;99.90;;;;;;20268124;29;20048;-79
2023/10/12 03:08:59;;;;;;;2.53;0.80;;;15.20;99.90;;;;;;20266544;29;20056;-79
2023/10/12 03:19:00;;;;;;;2.50;0.50;;;15.10;99.90;;;;;;20273730;29;20056;-82
2023/10/12 03:29:18;;;;;;;2.55;0.80;;;15.10;99.90;;;;;;20254028;29;20702;-82
2023/10/12 03:39:27;;;;;;;2.42;0.73;;;15.00;99.90;;;;;;20252871;29;20370;-81
2023/10/12 03:59:43;;;;;;;1.48;0.50;;;15.00;99.90;;;;;;20273422;29;20056;-83
2023/10/12 04:09:51;;;;;;;1.50;0.50;;;14.70;99.90;;;;;;20255180;29;20068;-82
2023/10/12 04:41:13;;;;;;;1.83;0.60;;;14.50;99.90;;;;;;20221215;29;20460;-80
2023/10/12 04:51:07;;;;;;;2.35;0.52;;;14.50;99.90;;;;;;20269566;29;20037;-79
2023/10/12 05:01:17;;;;;;;2.63;0.55;;;14.30;99.90;;;;;;20278996;29;20134;-79
2023/10/12 05:11:18;;;;;;;2.97;0.80;;;14.30;99.90;;;;;;20284154;29;20052;-80
2023/10/12 05:21:18;;;;;;;4.47;0.77;;;14.10;99.90;;;;;;20262847;29;21348;-81
2023/10/12 05:31:21;;;;;;;3.88;0.88;;;14.00;99.90;;;;;;20269425;29;20108;-82
2023/10/12 05:51:37;;;;;;;8.13;1.60;;;13.90;99.90;;;;;;20308260;29;20088;-83
2023/10/12 06:01:39;;;;;;;9.18;1.85;;;13.90;99.90;;;;;;20400478;28;20044;-82
2023/10/12 06:11:44;;;;;;;6.00;1.95;;;13.80;99.90;;;;;;20380731;29;20054;-83
2023/10/12 06:21:50;;;;;;;8.07;1.40;;;13.80;99.90;;;;;;20363590;29;20522;-83
2023/10/12 06:31:54;;;;;;;5.68;1.63;;;13.80;99.90;;;;;;20375039;29;20047;-82
2023/10/12 06:52:01;;;;;;;9.13;2.63;;;13.90;99.90;;;;;;20297457;29;20052;-84
2023/10/12 07:02:09;;;;;;;8.67;2.77;;;13.90;99.90;;;;;;20283176;29;20524;-84
2023/10/12 07:12:14;;;;;;;8.05;2.22;;;14.00;99.90;;;;;;20281818;29;20611;-84
2023/10/12 07:22:15;;;;;;;7.75;2.20;;;13.90;99.90;;;;;;20270181;29;20064;-84
2023/10/12 07:32:30;;;;;;;7.60;2.50;;;13.90;99.90;;;;;;20265155;29;20143;-83
2023/10/12 07:42:31;;;;;;;7.97;2.40;;;13.80;99.90;;;;;;20273102;29;20040;-83
2023/10/12 07:52:38;;;;;;;4.72;1.45;;;13.80;99.90;;;;;;20267562;29;20055;-80
2023/10/12 08:12:45;;;;;;;4.97;1.77;;;13.80;99.90;;;;;;20281636;29;20628;-81
2023/10/12 08:22:46;;;;;;;3.92;1.40;;;13.80;99.90;;;;;;20269452;29;20067;-80
2023/10/12 08:32:57;;;;;;;4.55;1.45;;;13.90;99.90;;;;;;20276987;29;20059;-81
2023/10/12 08:43:06;;;;;;;7.45;2.10;;;13.80;99.90;;;;;;20293924;29;20048;-80
2023/10/12 08:53:07;;;;;;;5.70;2.40;;;13.90;99.90;;;;;;20274367;29;20056;-80
2023/10/12 09:13:19;;;;;;;7.20;2.88;;;13.90;99.90;;;;;;20293061;29;20129;-83
2023/10/12 09:23:21;;;;;;;7.00;3.50;;;14.00;99.90;;;;;;20278866;29;20044;-82
2023/10/12 09:43:56;;;;;;;5.55;3.15;;;14.20;99.90;;;;;;20237938;29;20140;-83
2023/10/12 09:53:59;;;;;;;4.07;2.28;;;14.20;99.90;;;;;;20271571;29;20071;-83
2023/10/12 10:04:27;;;;;;;4.65;2.75;;;14.30;99.90;;;;;;20279730;29;20404;-83
2023/10/12 10:14:25;;;;;;;5.70;3.58;;;14.30;99.90;;;;;;20296094;29;20041;-84
2023/10/12 10:24:26;;;;;;;6.13;3.95;;;14.40;99.90;;;;;;20282976;29;20048;-85
2023/10/12 10:34:27;;;;;;;5.70;3.75;;;14.40;99.90;;;;;;20278787;29;20049;-84
2023/10/12 10:44:29;;;;;;;7.00;4.43;;;14.50;99.90;;;;;;20280199;29;20048;-86
2023/10/12 10:54:37;;;;;;;5.88;4.00;;;14.50;99.90;;;;;;20272295;29;20051;-85
2023/10/12 11:04:42;;;;;;;6.53;3.90;;;14.60;99.90;;;;;;20272877;29;20060;-86
2023/10/12 11:14:52;;;;;;;7.45;3.55;;;14.60;99.90;;;;;;20273321;29;20049;-87
2023/10/12 11:24:58;;;;;;;7.32;4.35;;;14.60;99.90;;;;;;20265078;29;20463;-81
2023/10/12 11:35:01;;;;;;;9.30;5.28;;;14.70;99.90;;;;;;20264546;29;20064;-82
2023/10/12 11:45:09;;;;;;;7.07;4.60;;;14.70;99.90;;;;;;20263337;29;20089;-81
2023/10/12 11:55:21;;;;;;;10.50;5.83;;;14.70;99.90;;;;;;20266037;29;20607;-80
2023/10/12 12:05:22;;;;;;;8.75;5.60;;;14.70;99.90;;;;;;20265042;29;20480;-80
2023/10/12 12:15:24;;;;;;;7.03;5.03;;;14.70;99.90;;;;;;20271646;29;20052;-81
2023/10/12 12:25:31;;;;;;;7.15;4.80;;;14.70;99.90;;;;;;20288763;29;20080;-81
2023/10/12 12:35:32;;;;;;;9.40;6.10;;;14.70;99.90;;;;;;20277844;29;20068;-83
2023/10/12 12:45:35;;;;;;;11.02;6.45;;;14.80;99.90;;;;;;20281213;29;20048;-83
2023/10/12 12:55:38;;;;;;;12.57;7.78;;;14.70;99.90;;;;;;20293194;29;20052;-84
2023/10/12 13:05:39;;;;;;;23.30;14.23;;;15.10;99.90;;;;;;20273244;29;20185;-83
2023/10/12 13:15:47;;;;;;;26.40;16.88;;;15.30;99.90;;;;;;20274431;29;20052;-83
2023/10/12 13:25:47;;;;;;;20.13;12.30;;;15.60;99.90;;;;;;20294321;29;20078;-83
2023/10/12 13:35:54;;;;;;;14.43;8.55;;;15.70;99.90;;;;;;20270404;29;20048;-84
2023/10/12 13:45:55;;;;;;;9.87;6.73;;;15.80;99.90;;;;;;20274358;29;20059;-84
2023/10/12 13:55:56;;;;;;;8.98;6.20;;;15.80;99.90;;;;;;20281085;29;20056;-84
2023/10/12 14:05:59;;;;;;;12.95;9.82;;;16.00;99.90;;;;;;20277635;29;20036;-85
2023/10/12 14:16:00;;;;;;;13.27;10.20;;;16.30;99.90;;;;;;20273868;29;20049;-84
2023/10/12 14:26:01;;;;;;;12.15;9.25;;;16.20;99.90;;;;;;20268361;29;20067;-85
2023/10/12 14:36:05;;;;;;;16.75;13.23;;;16.10;99.90;;;;;;20267675;29;20052;-84
2023/10/12 14:46:10;;;;;;;20.42;16.30;;;16.20;99.90;;;;;;20276057;29;20078;-84
2023/10/12 14:56:14;;;;;;;30.00;21.45;;;16.00;99.90;;;;;;20293132;29;21843;-86
2023/10/12 15:06:14;;;;;;;29.48;20.25;;;16.10;99.90;;;;;;20268999;29;20102;-85
2023/10/12 15:16:15;;;;;;;29.10;20.92;;;16.10;99.90;;;;;;20272976;29;20048;-85
2023/10/12 15:26:17;;;;;;;31.95;22.00;;;16.30;99.90;;;;;;20268833;29;20037;-86
2023/10/12 15:36:19;;;;;;;35.10;23.38;;;16.20;99.90;;;;;;20274944;29;20835;-86
2023/10/12 15:46:19;;;;;;;39.35;25.10;;;16.20;99.90;;;;;;20266516;29;20036;-85
2023/10/12 15:56:20;;;;;;;31.15;22.52;;;16.30;99.90;;;;;;20268345;29;20112;-85
2023/10/12 16:06:20;;;;;;;30.60;23.40;;;16.30;99.90;;;;;;20254119;29;20032;-83
2023/10/12 16:16:21;;;;;;;31.88;23.30;;;16.30;99.90;;;;;;20266165;29;20452;-82
2023/10/12 16:26:22;;;;;;;33.97;25.05;;;16.40;99.90;;;;;;20261704;29;20493;-82
2023/10/12 16:36:23;;;;;;;33.10;24.05;;;16.40;99.90;;;;;;20262065;29;20524;-82
2023/10/12 16:46:24;;;;;;;33.38;24.05;;;16.40;99.90;;;;;;20241197;29;20071;-83
2023/10/12 16:56:24;;;;;;;33.58;24.75;;;16.50;99.90;;;;;;20261250;29;20056;-82
2023/10/12 17:06:25;;;;;;;32.20;22.90;;;16.60;99.90;;;;;;20268957;29;20455;-81
2023/10/12 17:16:30;;;;;;;30.48;23.08;;;16.60;99.90;;;;;;20280752;29;20459;-82
2023/10/12 17:26:31;;;;;;;33.13;26.55;;;16.50;99.90;;;;;;20275113;29;20052;-84
2023/10/12 17:36:32;;;;;;;36.97;28.73;;;16.60;99.90;;;;;;20319619;29;20048;-83
2023/10/12 17:46:32;;;;;;;41.00;30.25;;;16.80;1.00;;;;;;20329223;29;20051;-83
2023/10/12 17:56:33;;;;;;;44.00;30.85;;;16.80;99.90;;;;;;20361137;29;20048;-83
2023/10/12 18:06:34;;;;;;;34.65;25.38;;;16.80;1.00;;;;;;20340139;29;20116;-83
2023/10/12 18:16:35;;;;;;;41.90;27.10;;;16.90;1.00;;;;;;20393558;28;20058;-83
2023/10/12 18:26:36;;;;;;;38.30;25.60;;;16.90;1.00;;;;;;20301027;29;20708;-85
2023/10/12 18:36:37;;;;;;;38.13;24.98;;;17.00;1.00;;;;;;20292745;29;20049;-85
2023/10/12 18:46:39;;;;;;;35.60;25.08;;;17.10;1.00;;;;;;20283781;29;20096;-85
2023/10/12 18:56:40;;;;;;;35.05;24.27;;;17.00;1.00;;;;;;20284011;29;20115;-85
2023/10/12 19:06:40;;;;;;;38.13;24.70;;;17.00;1.00;;;;;;20266451;29;20040;-84
2023/10/12 19:16:41;;;;;;;42.97;25.75;;;17.00;1.00;;;;;;20259169;29;20130;-84
2023/10/12 19:26:42;;;;;;;38.20;25.50;;;17.00;1.00;;;;;;20272092;29;20080;-85
2023/10/12 19:36:42;;;;;;;36.45;22.58;;;17.00;1.00;;;;;;20258476;29;20056;-83
2023/10/12 19:46:43;;;;;;;37.53;19.40;;;17.20;1.00;;;;;;20273787;29;20040;-84
2023/10/12 19:56:44;;;;;;;38.45;16.95;;;17.20;1.00;;;;;;20255665;29;20067;-82
2023/10/12 20:06:44;;;;;;;25.52;13.15;;;17.30;1.00;;;;;;20261690;29;20040;-83
2023/10/12 20:16:45;;;;;;;27.25;12.40;;;17.30;1.00;;;;;;20270122;29;20520;-83
2023/10/12 20:26:45;;;;;;;19.98;10.05;;;17.30;99.90;;;;;;20271013;29;20087;-83
2023/10/12 20:36:46;;;;;;;24.33;10.30;;;17.20;99.90;;;;;;20276799;29;20044;-83
2023/10/12 20:46:48;;;;;;;23.23;10.98;;;17.30;99.90;;;;;;20276472;29;20067;-82
2023/10/12 20:56:49;;;;;;;30.23;11.20;;;17.20;99.90;;;;;;20279935;29;20136;-82
2023/10/12 21:06:49;;;;;;;23.95;9.75;;;17.20;99.90;;;;;;20272831;29;20460;-83
2023/10/12 21:16:52;;;;;;;24.67;9.10;;;17.30;99.90;;;;;;20275336;29;20059;-85
2023/10/12 21:26:55;;;;;;;23.67;8.75;;;17.30;99.90;;;;;;20285023;29;20051;-83
2023/10/12 21:36:55;;;;;;;17.02;7.38;;;17.30;99.90;;;;;;20267986;29;20065;-82
2023/10/12 21:47:02;;;;;;;18.55;7.13;;;17.30;99.90;;;;;;20270823;29;20051;-83
2023/10/12 21:57:05;;;;;;;18.60;7.80;;;17.30;99.90;;;;;;20273940;29;20681;-86
2023/10/12 22:07:08;;;;;;;18.55;6.68;;;17.20;99.90;;;;;;20290487;29;20044;-86
2023/10/12 22:17:09;;;;;;;15.82;7.10;;;17.20;99.90;;;;;;20272007;29;20043;-86
2023/10/12 22:27:13;;;;;;;13.83;6.90;;;17.20;99.90;;;;;;20267793;29;20059;-86
2023/10/12 22:37:13;;;;;;;24.15;9.07;;;17.10;99.90;;;;;;20280649;29;20436;-86
2023/10/12 22:47:14;;;;;;;13.77;9.38;;;17.20;99.90;;;;;;20262492;29;20492;-86
2023/10/12 22:57:15;;;;;;;20.30;10.93;;;17.20;99.90;;;;;;20268553;29;20045;-86
2023/10/12 23:07:16;;;;;;;18.98;10.30;;;17.20;99.90;;;;;;20268175;29;20666;-87
2023/10/12 23:17:20;;;;;;;17.85;10.32;;;17.20;99.90;;;;;;20264423;29;20931;-87
2023/10/12 23:27:21;;;;;;;18.88;12.18;;;17.20;99.90;;;;;;20266879;29;20052;-87
2023/10/12 23:37:25;;;;;;;25.00;13.35;;;17.00;99.90;;;;;;20259786;29;20047;-87
2023/10/12 23:57:34;;;;;;;23.58;13.93;;;17.20;99.90;;;;;;20280159;29;20047;-87
